createdAt,value
2022-09-06T00:02:25.056Z,14
2022-09-06T00:04:55.285Z,14
2022-09-06T00:07:25.491Z,15
2022-09-06T00:09:55.760Z,16
2022-09-06T00:12:25.969Z,15
2022-09-06T00:14:56.230Z,16
2022-09-06T00:17:26.462Z,15
2022-09-06T00:19:56.704Z,14
2022-09-06T00:22:26.906Z,16
2022-09-06T00:24:57.191Z,17
2022-09-06T00:27:27.410Z,15
2022-09-06T00:29:57.673Z,15
2022-09-06T00:32:28.465Z,16
2022-09-06T00:34:58.737Z,16
2022-09-06T00:37:29.239Z,16
2022-09-06T00:39:59.639Z,16
2022-09-06T00:42:29.734Z,15
2022-09-06T00:45:00.539Z,17
2022-09-06T00:47:30.786Z,17
2022-09-06T00:50:01.033Z,17
2022-09-06T00:52:31.236Z,14
2022-09-06T00:55:01.497Z,17
2022-09-06T00:57:31.679Z,15
2022-09-06T01:00:01.945Z,19
2022-09-06T01:02:32.881Z,18
2022-09-06T01:05:02.974Z,16
2022-09-06T01:07:33.192Z,17
2022-09-06T01:10:03.488Z,19
2022-09-06T01:12:33.663Z,17
2022-09-06T01:15:04.552Z,17
2022-09-06T01:17:34.732Z,16
2022-09-06T01:20:04.962Z,17
2022-09-06T01:22:35.184Z,18
2022-09-06T01:25:05.235Z,17
2022-09-06T01:27:35.468Z,17
2022-09-06T01:30:05.742Z,17
2022-09-06T01:32:35.993Z,16
2022-09-06T01:35:06.230Z,18
2022-09-06T01:37:36.443Z,17
2022-09-06T01:40:06.828Z,18
2022-09-06T01:42:36.963Z,18
2022-09-06T01:45:07.229Z,18
2022-09-06T01:47:37.484Z,18
2022-09-06T01:50:07.708Z,20
2022-09-06T01:52:37.928Z,17
2022-09-06T01:55:08.949Z,19
2022-09-06T01:57:39.001Z,20
2022-09-06T02:00:09.821Z,22
2022-09-06T02:02:40.139Z,15
2022-09-06T02:05:10.349Z,17
2022-09-06T02:07:40.571Z,18
2022-09-06T02:10:11.435Z,17
2022-09-06T02:12:41.681Z,21
2022-09-06T02:15:11.989Z,17
2022-09-06T02:17:42.833Z,18
2022-09-06T02:20:13.117Z,19
2022-09-06T02:22:44.032Z,22
2022-09-06T02:25:14.218Z,19
2022-09-06T02:27:44.463Z,19
2022-09-06T02:30:14.769Z,20
2022-09-06T02:32:45.608Z,20
2022-09-06T02:35:15.967Z,17
2022-09-06T02:37:46.703Z,21
2022-09-06T02:40:17.577Z,17
2022-09-06T02:42:48.412Z,20
2022-09-06T02:45:18.706Z,18
2022-09-06T02:47:49.546Z,18
2022-09-06T02:50:19.817Z,17
2022-09-06T02:52:50.088Z,17
2022-09-06T02:55:20.935Z,18
2022-09-06T02:57:51.167Z,18
2022-09-06T03:00:22.034Z,20
2022-09-06T03:02:52.330Z,19
2022-09-06T03:05:22.577Z,19
2022-09-06T03:07:53.373Z,19
2022-09-06T03:10:23.990Z,20
2022-09-06T03:12:54.220Z,18
2022-09-06T03:15:24.446Z,20
2022-09-06T03:17:54.448Z,21
2022-09-06T03:20:25.006Z,25
2022-09-06T03:22:55.266Z,19
2022-09-06T03:25:25.582Z,17
2022-09-06T03:27:55.831Z,17
2022-09-06T03:30:26.236Z,20
2022-09-06T03:32:58.899Z,19
2022-09-06T03:35:26.710Z,19
2022-09-06T03:37:57.538Z,20
2022-09-06T03:40:27.893Z,21
2022-09-06T03:42:58.122Z,18
2022-09-06T03:45:28.526Z,19
2022-09-06T03:47:58.782Z,20
2022-09-06T03:50:29.292Z,19
2022-09-06T03:52:59.477Z,19
2022-09-06T03:55:29.956Z,18
2022-09-06T03:58:00.068Z,21
2022-09-06T04:00:30.387Z,20
2022-09-06T04:03:01.834Z,20
2022-09-06T04:05:30.965Z,18
2022-09-06T04:08:01.261Z,19
2022-09-06T04:10:31.582Z,20
2022-09-06T04:13:01.854Z,20
2022-09-06T04:15:31.974Z,22
2022-09-06T04:18:07.220Z,21
2022-09-06T04:20:33.019Z,20
2022-09-06T04:23:03.048Z,19
2022-09-06T04:25:33.422Z,20
2022-09-06T04:28:03.641Z,21
2022-09-06T04:30:34.272Z,22
2022-09-06T04:33:04.578Z,21
2022-09-06T04:35:34.729Z,19
2022-09-06T04:38:04.885Z,19
2022-09-06T04:40:35.324Z,22
2022-09-06T04:43:05.510Z,20
2022-09-06T04:45:36.110Z,23
2022-09-06T04:48:06.371Z,19
2022-09-06T04:50:36.402Z,22
2022-09-06T04:53:06.434Z,22
2022-09-06T04:55:36.601Z,23
2022-09-06T04:58:07.249Z,21
2022-09-06T05:00:37.306Z,23
2022-09-06T05:03:07.606Z,22
2022-09-06T05:05:37.909Z,22
2022-09-06T05:08:08.211Z,20
2022-09-06T05:10:38.541Z,21
2022-09-06T05:13:08.829Z,20
2022-09-06T05:15:38.891Z,17
2022-09-06T05:18:12.829Z,18
2022-09-06T05:20:39.721Z,19
2022-09-06T05:23:09.695Z,28
2022-09-06T05:25:40.052Z,20
2022-09-06T05:28:10.043Z,23
2022-09-06T05:30:40.586Z,25
2022-09-06T05:33:10.672Z,23
2022-09-06T05:35:40.770Z,24
2022-09-06T05:38:11.179Z,20
2022-09-06T05:40:42.073Z,27
2022-09-06T05:43:12.218Z,20
2022-09-06T05:45:42.219Z,22
2022-09-06T05:48:12.492Z,23
2022-09-06T05:50:43.376Z,32
2022-09-06T05:53:13.915Z,24
2022-09-06T05:55:43.974Z,21
2022-09-06T05:58:14.006Z,23
2022-09-06T06:00:44.636Z,29
2022-09-06T06:03:14.619Z,24
2022-09-06T06:05:44.938Z,23
2022-09-06T06:08:15.227Z,27
2022-09-06T06:10:45.568Z,26
2022-09-06T06:13:15.814Z,25
2022-09-06T06:15:46.517Z,34
2022-09-06T06:18:16.777Z,25
2022-09-06T06:20:46.934Z,31
2022-09-06T06:23:17.409Z,32
2022-09-06T06:25:47.888Z,30
2022-09-06T06:28:18.331Z,30
2022-09-06T06:30:48.432Z,25
2022-09-06T06:33:19.096Z,32
2022-09-06T06:35:50.010Z,29
2022-09-06T06:38:20.421Z,27
2022-09-06T06:40:53.181Z,27
2022-09-06T06:43:20.956Z,30
2022-09-06T06:45:51.194Z,34
2022-09-06T06:48:21.945Z,24
2022-09-06T06:50:51.942Z,28
2022-09-06T06:53:22.003Z,28
2022-09-06T06:55:52.352Z,27
2022-09-06T06:58:22.998Z,29
2022-09-06T07:00:53.659Z,27
2022-09-06T07:03:23.619Z,27
2022-09-06T07:08:24.439Z,34
2022-09-06T07:10:54.965Z,28
2022-09-06T07:13:24.957Z,34
2022-09-06T07:15:55.925Z,30
2022-09-06T07:18:26.249Z,30
2022-09-06T07:25:56.811Z,35
2022-09-06T07:28:27.607Z,32
2022-09-06T07:30:57.526Z,33
2022-09-06T07:33:28.514Z,32
2022-09-06T07:35:59.046Z,29
2022-09-06T07:38:29.063Z,31
2022-09-06T07:40:59.066Z,30
2022-09-06T07:43:29.472Z,32
2022-09-06T07:46:00.250Z,34
2022-09-06T07:48:30.826Z,32
2022-09-06T07:51:01.697Z,37
2022-09-06T07:53:32.882Z,32
2022-09-06T07:56:03.078Z,34
2022-09-06T07:58:33.052Z,32
2022-09-06T08:01:03.673Z,31
2022-09-06T08:03:34.251Z,34
2022-09-06T08:09:00.055Z,36
2022-09-06T08:11:05.154Z,33
2022-09-06T08:13:36.050Z,35
2022-09-06T08:16:06.465Z,35
2022-09-06T08:18:36.823Z,40
2022-09-06T08:21:11.534Z,31
2022-09-06T08:23:37.560Z,34
2022-09-06T08:26:08.243Z,37
2022-09-06T08:28:38.601Z,38
2022-09-06T08:31:09.403Z,34
2022-09-06T08:33:40.294Z,37
2022-09-06T08:36:10.361Z,37
2022-09-06T08:38:41.360Z,34
2022-09-06T08:41:11.309Z,31
2022-09-06T08:43:41.605Z,29
2022-09-06T08:46:12.497Z,37
2022-09-06T08:48:43.025Z,36
2022-09-06T08:51:13.521Z,32
2022-09-06T08:53:43.651Z,37
2022-09-06T08:56:14.395Z,38
2022-09-06T08:58:44.472Z,38
2022-09-06T09:01:15.050Z,33
2022-09-06T09:03:45.327Z,35
2022-09-06T09:06:15.487Z,38
2022-09-06T09:08:45.736Z,30
2022-09-06T09:11:16.257Z,35
2022-09-06T09:13:46.958Z,35
2022-09-06T09:16:17.328Z,31
2022-09-06T09:18:47.552Z,31
2022-09-06T09:21:18.337Z,34
2022-09-06T09:23:49.172Z,31
2022-09-06T09:26:19.783Z,27
2022-09-06T09:28:50.249Z,28
2022-09-06T09:31:20.535Z,26
2022-09-06T09:33:50.956Z,33
2022-09-06T09:36:21.183Z,27
2022-09-06T09:38:52.123Z,27
2022-09-06T09:41:22.360Z,26
2022-09-06T09:43:53.193Z,29
2022-09-06T09:46:23.602Z,31
2022-09-06T09:48:53.811Z,29
2022-09-06T09:51:27.399Z,28
2022-09-06T09:53:55.110Z,25
2022-09-06T09:56:25.321Z,25
2022-09-06T09:58:55.886Z,30
2022-09-06T10:01:26.688Z,27
2022-09-06T10:08:58.096Z,22
2022-09-06T10:11:28.297Z,25
2022-09-06T10:13:59.056Z,23
2022-09-06T10:16:29.849Z,28
2022-09-06T10:19:00.567Z,25
2022-09-06T10:21:30.662Z,24
2022-09-06T10:24:28.232Z,29
2022-09-06T10:26:31.817Z,27
2022-09-06T10:29:02.734Z,22
2022-09-06T10:31:33.540Z,25
2022-09-06T10:34:03.890Z,22
2022-09-06T10:36:34.048Z,22
2022-09-06T10:39:04.818Z,21
2022-09-06T10:41:35.579Z,21
2022-09-06T10:44:05.750Z,24
2022-09-06T10:46:36.558Z,23
2022-09-06T10:49:07.231Z,20
2022-09-06T10:51:37.473Z,18
2022-09-06T10:54:08.130Z,18
2022-09-06T10:56:38.569Z,17
2022-09-06T10:59:37.191Z,19
2022-09-06T11:01:39.594Z,24
2022-09-06T11:04:12.859Z,18
2022-09-06T11:06:40.380Z,20
2022-09-06T11:09:10.567Z,17
2022-09-06T11:11:41.281Z,17
2022-09-06T11:14:11.470Z,20
2022-09-06T11:16:41.645Z,18
2022-09-06T11:19:11.753Z,18
2022-09-06T11:21:41.886Z,18
2022-09-06T11:24:12.061Z,15
2022-09-06T11:26:42.362Z,15
2022-09-06T11:29:12.341Z,13
2022-09-06T11:34:12.627Z,17
2022-09-06T11:36:42.800Z,15
2022-09-06T11:39:12.850Z,16
2022-09-06T11:41:42.955Z,16
2022-09-06T11:44:13.166Z,13
2022-09-06T11:46:43.350Z,15
2022-09-06T11:49:13.315Z,15
2022-09-06T11:51:43.977Z,14
2022-09-06T11:54:14.136Z,14
2022-09-06T11:56:44.260Z,13
2022-09-06T11:59:14.405Z,14
2022-09-06T12:01:44.572Z,14
2022-09-06T12:04:14.649Z,15
2022-09-06T12:06:44.748Z,15
2022-09-06T12:09:14.908Z,15
2022-09-06T12:11:45.118Z,12
2022-09-06T12:14:15.158Z,10
2022-09-06T12:16:45.252Z,12
2022-09-06T12:19:15.406Z,11
2022-09-06T12:21:45.537Z,11
2022-09-06T12:24:15.648Z,11
2022-09-06T12:26:45.739Z,11
2022-09-06T12:29:15.856Z,11
2022-09-06T12:31:46.026Z,10
2022-09-06T12:34:16.064Z,9
2022-09-06T12:36:46.159Z,11
2022-09-06T12:39:16.295Z,10
2022-09-06T12:41:46.381Z,11
2022-09-06T12:44:16.475Z,9
2022-09-06T12:46:46.621Z,7
2022-09-06T12:49:16.670Z,8
2022-09-06T12:51:46.726Z,9
2022-09-06T12:54:17.428Z,6
2022-09-06T12:56:47.592Z,10
2022-09-06T12:59:17.615Z,10
2022-09-06T13:01:47.964Z,9
2022-09-06T13:04:17.795Z,9
2022-09-06T13:06:47.955Z,7
2022-09-06T13:09:17.948Z,9
2022-09-06T13:11:48.026Z,7
2022-09-06T13:14:18.108Z,8
2022-09-06T13:16:48.159Z,11
2022-09-06T13:19:18.276Z,9
2022-09-06T13:21:48.313Z,9
2022-09-06T13:24:18.432Z,11
2022-09-06T13:26:48.518Z,10
2022-09-06T13:29:18.604Z,13
2022-09-06T13:31:48.671Z,12
2022-09-06T13:34:18.781Z,11
2022-09-06T13:36:48.874Z,10
2022-09-06T13:39:18.947Z,10
2022-09-06T13:41:49.006Z,10
2022-09-06T13:44:19.079Z,10
2022-09-06T13:46:49.146Z,10
2022-09-06T13:49:19.220Z,9
2022-09-06T13:51:49.280Z,10
2022-09-06T13:54:19.381Z,9
2022-09-06T13:56:49.446Z,9
2022-09-06T13:59:19.510Z,9
2022-09-06T14:01:49.618Z,9
2022-09-06T14:04:19.654Z,8
2022-09-06T14:06:49.692Z,11
2022-09-06T14:09:19.818Z,9
2022-09-06T14:11:49.865Z,9
2022-09-06T14:14:19.930Z,10
2022-09-06T14:16:50.086Z,9
2022-09-06T14:19:20.059Z,8
2022-09-06T14:21:50.108Z,8
2022-09-06T14:24:20.186Z,6
2022-09-06T14:26:50.245Z,7
2022-09-06T14:29:20.317Z,8
2022-09-06T14:31:50.351Z,7
2022-09-06T14:34:20.456Z,6
2022-09-06T14:36:50.475Z,6
2022-09-06T14:39:20.554Z,8
2022-09-06T14:41:50.611Z,7
2022-09-06T14:44:20.786Z,7
2022-09-06T14:46:50.704Z,5
2022-09-06T14:49:20.781Z,8
2022-09-06T14:51:50.838Z,6
2022-09-06T14:54:21.004Z,6
2022-09-06T14:56:50.965Z,7
2022-09-06T14:59:21.039Z,6
2022-09-06T15:01:51.118Z,7
2022-09-06T15:04:21.153Z,7
2022-09-06T15:06:51.868Z,8
2022-09-06T15:09:21.843Z,6
2022-09-06T15:11:51.915Z,6
2022-09-06T15:14:21.988Z,7
2022-09-06T15:16:55.546Z,6
2022-09-06T15:19:22.077Z,7
2022-09-06T15:21:52.099Z,8
2022-09-06T15:24:22.168Z,7
2022-09-06T15:26:52.204Z,8
2022-09-06T15:29:22.254Z,8
2022-09-06T15:31:52.343Z,8
2022-09-06T15:34:22.330Z,7
2022-09-06T15:36:52.349Z,8
2022-09-06T15:39:22.474Z,8
2022-09-06T15:41:52.549Z,8
2022-09-06T15:44:22.487Z,5
2022-09-06T15:46:52.517Z,7
2022-09-06T15:49:26.959Z,7
2022-09-06T15:51:52.693Z,6
2022-09-06T15:54:22.782Z,8
2022-09-06T15:56:52.724Z,9
2022-09-06T15:59:22.767Z,9
2022-09-06T16:01:52.851Z,8
2022-09-06T16:04:22.860Z,7
2022-09-06T16:06:53.003Z,8
2022-09-06T16:09:22.953Z,7
2022-09-06T16:11:52.998Z,6
2022-09-06T16:14:23.046Z,7
2022-09-06T16:16:54.179Z,7
2022-09-06T16:19:23.138Z,7
2022-09-06T16:21:53.214Z,7
2022-09-06T16:24:23.221Z,7
2022-09-06T16:26:53.266Z,7
2022-09-06T16:29:23.317Z,7
2022-09-06T16:31:53.339Z,8
2022-09-06T16:34:23.404Z,7
2022-09-06T16:36:53.435Z,6
2022-09-06T16:39:23.507Z,10
2022-09-06T16:41:53.662Z,12
2022-09-06T16:44:23.648Z,11
2022-09-06T16:46:54.255Z,13
2022-09-06T16:49:24.359Z,13
2022-09-06T16:51:54.978Z,13
2022-09-06T16:54:25.116Z,13
2022-09-06T16:56:55.209Z,12
2022-09-06T16:59:25.419Z,13
2022-09-06T17:01:55.538Z,14
2022-09-06T17:04:26.063Z,16
2022-09-06T17:06:56.155Z,13
2022-09-06T17:09:26.834Z,15
2022-09-06T17:11:56.926Z,18
2022-09-06T17:14:27.065Z,16
2022-09-06T17:16:57.267Z,14
2022-09-06T17:19:27.253Z,19
2022-09-06T17:21:57.457Z,14
2022-09-06T17:24:28.006Z,16
2022-09-06T17:26:58.118Z,18
2022-09-06T17:29:28.199Z,18
2022-09-06T17:31:58.275Z,17
2022-09-06T17:34:28.393Z,13
2022-09-06T17:36:58.465Z,16
2022-09-06T17:39:28.626Z,17
2022-09-06T17:41:59.255Z,16
2022-09-06T17:44:29.922Z,19
2022-09-06T17:47:12.461Z,15
2022-09-06T17:49:30.185Z,14
2022-09-06T17:52:00.296Z,19
2022-09-06T17:54:30.919Z,17
2022-09-06T17:57:01.030Z,16
2022-09-06T17:59:34.819Z,15
2022-09-06T18:02:01.229Z,15
2022-09-06T18:04:32.078Z,16
2022-09-06T18:07:02.023Z,17
2022-09-06T18:09:32.722Z,17
2022-09-06T18:12:02.841Z,17
2022-09-06T18:14:32.962Z,17
2022-09-06T18:17:03.133Z,16
2022-09-06T18:19:33.236Z,15
2022-09-06T18:22:03.368Z,17
2022-09-06T18:24:33.551Z,19
2022-09-06T18:27:03.689Z,17
2022-09-06T18:29:34.399Z,17
2022-09-06T18:32:04.657Z,15
2022-09-06T18:34:34.696Z,18
2022-09-06T18:37:05.378Z,20
2022-09-06T18:39:35.609Z,18
2022-09-06T18:42:05.731Z,16
2022-09-06T18:44:35.873Z,14
2022-09-06T18:47:06.003Z,16
2022-09-06T18:49:39.469Z,14
2022-09-06T18:52:06.313Z,19
2022-09-06T18:54:36.484Z,17
2022-09-06T18:57:06.617Z,17
2022-09-06T18:59:37.056Z,17
2022-09-06T19:02:07.700Z,19
2022-09-06T19:04:37.885Z,15
2022-09-06T19:07:08.016Z,16
2022-09-06T19:09:38.186Z,17
2022-09-06T19:12:08.332Z,15
2022-09-06T19:14:38.529Z,16
2022-09-06T19:17:08.632Z,17
2022-09-06T19:19:38.826Z,17
2022-09-06T19:22:09.525Z,18
2022-09-06T19:24:39.715Z,22
2022-09-06T19:27:09.887Z,22
2022-09-06T19:29:40.063Z,18
2022-09-06T19:32:10.791Z,21
2022-09-06T19:34:40.970Z,20
2022-09-06T19:37:11.275Z,18
2022-09-06T19:39:41.974Z,18
2022-09-06T19:42:12.676Z,20
2022-09-06T19:44:42.863Z,17
2022-09-06T19:47:13.678Z,19
2022-09-06T19:49:44.393Z,20
2022-09-06T19:52:14.659Z,20
2022-09-06T19:54:44.777Z,19
2022-09-06T19:57:14.972Z,19
2022-09-06T19:59:45.176Z,15
2022-09-06T20:02:15.391Z,16
2022-09-06T20:04:45.579Z,19
2022-09-06T20:07:15.748Z,18
2022-09-06T20:09:50.577Z,18
2022-09-06T20:12:17.290Z,18
2022-09-06T20:14:47.527Z,18
2022-09-06T20:17:33.262Z,18
2022-09-06T20:19:48.510Z,17
2022-09-06T20:22:18.701Z,17
2022-09-06T20:24:49.248Z,20
2022-09-06T20:27:19.444Z,19
2022-09-06T20:29:49.673Z,15
2022-09-06T20:32:19.963Z,16
2022-09-06T20:34:50.132Z,17
2022-09-06T20:37:20.318Z,17
2022-09-06T20:39:50.612Z,15
2022-09-06T20:42:20.785Z,17
2022-09-06T20:44:51.583Z,16
2022-09-06T20:47:22.324Z,17
2022-09-06T20:49:52.580Z,19
2022-09-06T20:52:22.776Z,16
2022-09-06T20:54:53.038Z,18
2022-09-06T20:57:23.255Z,16
2022-09-06T20:59:53.476Z,16
2022-09-06T21:02:23.756Z,15
2022-09-06T21:04:54.493Z,13
2022-09-06T21:07:24.690Z,17
2022-09-06T21:09:54.948Z,18
2022-09-06T21:12:25.173Z,17
2022-09-06T21:14:55.199Z,21
2022-09-06T21:17:25.266Z,16
2022-09-06T21:19:55.520Z,16
2022-09-06T21:22:26.345Z,15
2022-09-06T21:24:57.128Z,16
2022-09-06T21:27:27.351Z,18
2022-09-06T21:29:57.629Z,16
2022-09-06T21:32:27.845Z,14
2022-09-06T21:34:58.053Z,15
2022-09-06T21:37:28.837Z,14
2022-09-06T21:39:59.139Z,14
2022-09-06T21:42:29.325Z,17
2022-09-06T21:44:59.561Z,15
2022-09-06T21:47:29.763Z,15
2022-09-06T21:50:00.045Z,16
2022-09-06T21:52:30.253Z,17
2022-09-06T21:55:00.530Z,14
2022-09-06T21:57:30.771Z,16
2022-09-06T22:00:01.005Z,16
2022-09-06T22:02:31.855Z,19
2022-09-06T22:05:02.570Z,16
2022-09-06T22:07:32.776Z,15
2022-09-06T22:10:03.604Z,17
2022-09-06T22:12:34.374Z,15
2022-09-06T22:15:04.609Z,16
2022-09-06T22:17:34.852Z,15
2022-09-06T22:20:05.085Z,14
2022-09-06T22:22:35.859Z,16
2022-09-06T22:25:06.130Z,14
2022-09-06T22:27:36.928Z,15
2022-09-06T22:30:07.170Z,16
2022-09-06T22:32:37.393Z,15
2022-09-06T22:35:07.647Z,15
2022-09-06T22:37:37.893Z,18
2022-09-06T22:40:08.831Z,17
2022-09-06T22:42:38.998Z,15
2022-09-06T22:45:09.250Z,15
2022-09-06T22:47:39.522Z,17
2022-09-06T22:50:09.790Z,14
2022-09-06T22:52:40.086Z,15
2022-09-06T22:55:10.326Z,15
2022-09-06T22:57:40.609Z,13
2022-09-06T23:00:10.833Z,18
2022-09-06T23:02:41.069Z,18
2022-09-06T23:05:11.351Z,14
2022-09-06T23:07:42.155Z,19
2022-09-06T23:10:12.434Z,17
2022-09-06T23:12:42.914Z,17
2022-09-06T23:15:13.750Z,18
2022-09-06T23:17:44.029Z,16
2022-09-06T23:20:14.294Z,16
2022-09-06T23:22:44.586Z,18
2022-09-06T23:25:15.442Z,17
2022-09-06T23:27:45.724Z,19
2022-09-06T23:30:16.012Z,18
2022-09-06T23:32:46.313Z,17
2022-09-06T23:35:16.642Z,18
2022-09-06T23:37:46.887Z,18
2022-09-06T23:40:17.865Z,18
2022-09-06T23:42:48.667Z,16
2022-09-06T23:45:19.183Z,17
2022-09-06T23:47:49.454Z,17
2022-09-06T23:50:19.776Z,20
2022-09-06T23:52:50.053Z,19
2022-09-06T23:55:20.372Z,19
2022-09-06T23:57:50.671Z,18
